createdAt,value
2018-12-20T00:00:29.170Z,31.94
2018-12-20T00:01:30.598Z,31.65
2018-12-20T00:02:31.867Z,32.22
2018-12-20T00:03:33.339Z,32.18
2018-12-20T00:04:34.878Z,31.91
2018-12-20T00:05:36.211Z,32.00
2018-12-20T00:06:37.447Z,31.71
2018-12-20T00:07:38.653Z,31.74
2018-12-20T00:08:39.869Z,32.06
2018-12-20T00:09:41.213Z,31.96
2018-12-20T00:10:42.433Z,31.93
2018-12-20T00:11:43.583Z,32.19
2018-12-20T00:12:44.762Z,32.26
2018-12-20T00:13:45.894Z,32.08
2018-12-20T00:14:47.041Z,31.77
2018-12-20T00:15:48.193Z,32.04
2018-12-20T00:16:51.416Z,31.92
2018-12-20T00:17:52.795Z,31.70
2018-12-20T00:18:54.164Z,32.21
2018-12-20T00:19:55.342Z,31.90
2018-12-20T00:20:56.555Z,31.87
2018-12-20T00:21:57.834Z,32.29
2018-12-20T00:22:58.989Z,31.72
2018-12-20T00:24:00.146Z,32.14
2018-12-20T00:25:01.347Z,31.89
2018-12-20T00:26:02.722Z,31.64
2018-12-20T00:27:03.918Z,31.75
2018-12-20T00:28:05.092Z,31.62
2018-12-20T00:29:06.490Z,31.89
2018-12-20T00:30:08.005Z,32.13
2018-12-20T00:31:13.568Z,31.76
2018-12-20T00:32:12.480Z,32.27
2018-12-20T00:33:13.688Z,31.87
2018-12-20T00:34:15.114Z,32.23
2018-12-20T00:35:16.466Z,31.82
2018-12-20T00:36:17.643Z,31.75
2018-12-20T00:37:18.794Z,31.85
2018-12-20T00:38:19.981Z,31.72
2018-12-20T00:39:21.119Z,31.66
2018-12-20T00:40:22.282Z,32.21
2018-12-20T00:41:23.431Z,32.12
2018-12-20T00:42:24.707Z,31.96
2018-12-20T00:43:25.974Z,31.72
2018-12-20T00:44:27.129Z,31.87
2018-12-20T00:45:28.296Z,31.96
2018-12-20T00:46:29.548Z,31.92
2018-12-20T00:47:30.773Z,31.97
2018-12-20T00:48:32.008Z,32.27
2018-12-20T00:49:33.232Z,32.31
2018-12-20T00:50:34.424Z,32.33
2018-12-20T00:51:35.683Z,32.04
2018-12-20T00:52:36.883Z,31.94
2018-12-20T00:53:38.033Z,31.78
2018-12-20T00:54:39.185Z,32.31
2018-12-20T00:55:40.390Z,31.81
2018-12-20T00:56:41.677Z,32.18
2018-12-20T00:57:42.881Z,32.17
2018-12-20T00:58:44.162Z,31.77
2018-12-20T00:59:45.465Z,32.14
2018-12-20T01:00:46.668Z,31.96
2018-12-20T01:01:47.970Z,31.70
2018-12-20T01:02:55.278Z,31.86
2018-12-20T01:03:52.568Z,31.66
2018-12-20T01:04:53.829Z,32.09
2018-12-20T01:05:55.018Z,31.81
2018-12-20T01:06:56.325Z,31.68
2018-12-20T01:07:57.710Z,31.64
2018-12-20T01:08:58.945Z,32.19
2018-12-20T01:10:00.102Z,32.14
2018-12-20T01:11:01.797Z,31.68
2018-12-20T01:12:03.169Z,31.82
2018-12-20T01:13:04.637Z,31.62
2018-12-20T01:14:05.920Z,32.04
2018-12-20T01:15:07.411Z,31.67
2018-12-20T01:16:08.711Z,32.26
2018-12-20T01:17:09.895Z,31.93
2018-12-20T01:18:11.209Z,31.69
2018-12-20T01:19:12.389Z,32.05
2018-12-20T01:20:20.442Z,32.16
2018-12-20T01:21:21.654Z,32.07
2018-12-20T01:22:22.797Z,31.86
2018-12-20T01:23:24.073Z,32.13
2018-12-20T01:24:25.304Z,31.66
2018-12-20T01:25:26.455Z,32.16
2018-12-20T01:26:27.734Z,31.82
2018-12-20T01:27:28.957Z,32.03
2018-12-20T01:28:30.197Z,31.80
2018-12-20T01:29:31.394Z,31.73
2018-12-20T01:30:32.621Z,31.87
2018-12-20T01:31:33.887Z,31.79
2018-12-20T01:32:35.166Z,31.78
2018-12-20T01:33:36.561Z,31.98
2018-12-20T01:34:37.698Z,31.75
2018-12-20T01:35:38.871Z,32.12
2018-12-20T01:36:40.024Z,31.83
2018-12-20T01:37:41.351Z,31.80
2018-12-20T01:38:42.571Z,31.95
2018-12-20T01:39:43.762Z,32.20
2018-12-20T01:40:45.021Z,31.80
2018-12-20T01:41:46.183Z,31.93
2018-12-20T01:42:47.388Z,32.04
2018-12-20T01:43:48.610Z,31.92
2018-12-20T01:44:53.510Z,32.30
2018-12-20T01:45:52.934Z,32.20
2018-12-20T01:46:54.115Z,31.86
2018-12-20T01:47:55.306Z,32.00
2018-12-20T01:48:56.470Z,31.98
2018-12-20T01:49:57.640Z,31.90
2018-12-20T01:50:58.810Z,32.45
2018-12-20T01:51:59.979Z,32.43
2018-12-20T01:53:01.280Z,32.39
2018-12-20T01:54:02.445Z,31.91
2018-12-20T01:55:04.212Z,32.42
2018-12-20T01:56:05.504Z,32.32
2018-12-20T01:57:06.885Z,32.26
2018-12-20T01:58:08.174Z,31.88
2018-12-20T01:59:09.353Z,31.85
2018-12-20T02:00:10.754Z,32.42
2018-12-20T02:01:11.901Z,32.26
2018-12-20T02:02:13.199Z,32.11
2018-12-20T02:03:14.462Z,32.00
2018-12-20T02:04:15.712Z,31.95
2018-12-20T02:05:16.914Z,32.32
2018-12-20T02:06:18.161Z,31.91
2018-12-20T02:07:19.518Z,32.43
2018-12-20T02:08:20.927Z,32.12
2018-12-20T02:09:22.225Z,32.18
2018-12-20T02:10:23.558Z,32.37
2018-12-20T02:11:25.126Z,32.53
2018-12-20T02:12:26.457Z,31.94
2018-12-20T02:13:27.716Z,32.45
2018-12-20T02:14:28.989Z,32.16
2018-12-20T02:15:30.305Z,32.35
2018-12-20T02:16:31.553Z,32.11
2018-12-20T02:17:32.844Z,31.92
2018-12-20T02:18:34.296Z,32.28
2018-12-20T02:19:35.782Z,32.01
2018-12-20T02:20:37.298Z,32.30
2018-12-20T02:21:38.759Z,32.32
2018-12-20T02:22:39.978Z,32.08
2018-12-20T02:23:41.459Z,32.07
2018-12-20T02:24:42.682Z,32.57
2018-12-20T02:25:43.837Z,31.95
2018-12-20T02:26:45.001Z,32.37
2018-12-20T02:27:46.187Z,32.05
2018-12-20T02:28:47.455Z,32.45
2018-12-20T02:29:48.748Z,32.28
2018-12-20T02:30:49.985Z,32.02
2018-12-20T02:31:51.118Z,32.46
2018-12-20T02:32:53.011Z,32.41
2018-12-20T02:33:54.620Z,32.40
2018-12-20T02:34:55.990Z,32.02
2018-12-20T02:35:57.250Z,32.21
2018-12-20T02:36:58.671Z,32.06
2018-12-20T02:38:00.278Z,32.15
2018-12-20T02:39:01.677Z,32.10
2018-12-20T02:40:04.020Z,32.46
2018-12-20T02:41:05.341Z,32.08
2018-12-20T02:42:06.806Z,32.27
2018-12-20T02:43:08.038Z,32.38
2018-12-20T02:44:09.485Z,31.97
2018-12-20T02:45:11.119Z,32.23
2018-12-20T02:46:12.483Z,32.50
2018-12-20T02:47:13.705Z,32.23
2018-12-20T02:48:14.949Z,32.28
2018-12-20T02:49:16.194Z,32.58
2018-12-20T02:50:17.326Z,32.46
2018-12-20T02:51:18.699Z,31.94
2018-12-20T02:52:19.969Z,32.30
2018-12-20T02:53:21.253Z,32.19
2018-12-20T02:54:22.725Z,32.18
2018-12-20T02:55:24.092Z,31.98
2018-12-20T02:56:25.247Z,32.34
2018-12-20T02:57:26.576Z,32.30
2018-12-20T02:58:27.989Z,32.29
2018-12-20T02:59:29.183Z,31.99
2018-12-20T03:00:30.382Z,32.56
2018-12-20T03:01:31.505Z,32.20
2018-12-20T03:02:32.731Z,32.56
2018-12-20T03:03:33.898Z,32.57
2018-12-20T03:04:35.045Z,32.19
2018-12-20T03:05:36.669Z,32.17
2018-12-20T03:06:37.911Z,32.57
2018-12-20T03:07:39.086Z,32.13
2018-12-20T03:08:40.253Z,32.29
2018-12-20T03:09:41.495Z,32.42
2018-12-20T03:10:42.659Z,32.67
2018-12-20T03:11:44.022Z,32.08
2018-12-20T03:12:45.293Z,32.11
2018-12-20T03:13:46.502Z,32.32
2018-12-20T03:14:47.778Z,32.27
2018-12-20T03:15:49.191Z,32.45
2018-12-20T03:16:50.446Z,32.66
2018-12-20T03:17:51.891Z,32.65
2018-12-20T03:18:53.211Z,32.59
2018-12-20T03:19:54.388Z,32.36
2018-12-20T03:20:55.745Z,32.59
2018-12-20T03:21:57.130Z,32.34
2018-12-20T03:22:58.517Z,32.57
2018-12-20T03:23:59.817Z,32.68
2018-12-20T03:25:01.066Z,32.21
2018-12-20T03:26:02.293Z,32.29
2018-12-20T03:27:03.630Z,32.67
2018-12-20T03:28:04.936Z,32.32
2018-12-20T03:29:06.189Z,32.56
2018-12-20T03:30:07.493Z,32.12
2018-12-20T03:31:09.143Z,32.65
2018-12-20T03:32:10.564Z,32.20
2018-12-20T03:33:11.796Z,32.73
2018-12-20T03:34:13.099Z,32.58
2018-12-20T03:35:14.545Z,32.16
2018-12-20T03:36:15.995Z,32.49
2018-12-20T03:37:17.579Z,32.34
2018-12-20T03:38:19.082Z,32.87
2018-12-20T03:39:20.421Z,32.46
2018-12-20T03:40:21.833Z,32.71
2018-12-20T03:41:23.039Z,32.58
2018-12-20T03:42:24.226Z,32.74
2018-12-20T03:43:25.596Z,32.19
2018-12-20T03:44:26.943Z,32.41
2018-12-20T03:45:29.094Z,32.59
2018-12-20T03:46:30.518Z,32.33
2018-12-20T03:47:31.914Z,32.77
2018-12-20T03:48:33.297Z,32.60
2018-12-20T03:49:34.589Z,32.33
2018-12-20T03:50:35.874Z,32.87
2018-12-20T03:51:37.163Z,32.33
2018-12-20T03:52:38.424Z,32.85
2018-12-20T03:53:39.976Z,32.85
2018-12-20T03:54:41.416Z,32.87
2018-12-20T03:55:42.808Z,32.38
2018-12-20T03:56:44.240Z,32.54
2018-12-20T03:57:45.546Z,32.58
2018-12-20T03:58:47.021Z,32.70
2018-12-20T03:59:48.386Z,32.65
2018-12-20T04:00:49.774Z,32.40
2018-12-20T04:01:50.991Z,32.60
2018-12-20T04:02:52.153Z,32.48
2018-12-20T04:03:53.410Z,32.71
2018-12-20T04:04:54.669Z,32.74
2018-12-20T04:05:55.878Z,32.53
2018-12-20T04:06:57.307Z,32.75
2018-12-20T04:07:58.562Z,32.47
2018-12-20T04:08:59.854Z,32.86
2018-12-20T04:10:01.081Z,32.51
2018-12-20T04:11:02.404Z,32.91
2018-12-20T04:12:03.742Z,32.76
2018-12-20T04:13:04.928Z,32.56
2018-12-20T04:14:06.191Z,32.71
2018-12-20T04:15:07.429Z,32.94
2018-12-20T04:16:08.885Z,33.17
2018-12-20T04:17:10.323Z,32.66
2018-12-20T04:18:11.638Z,33.03
2018-12-20T04:19:12.951Z,33.15
2018-12-20T04:20:14.198Z,33.10
2018-12-20T04:21:15.347Z,33.32
2018-12-20T04:22:16.585Z,33.07
2018-12-20T04:23:17.726Z,33.19
2018-12-20T04:24:19.225Z,33.20
2018-12-20T04:25:20.470Z,32.56
2018-12-20T04:26:21.808Z,32.68
2018-12-20T04:27:23.006Z,32.69
2018-12-20T04:28:24.785Z,33.06
2018-12-20T04:29:25.946Z,33.15
2018-12-20T04:30:27.129Z,33.05
2018-12-20T04:31:28.377Z,32.76
2018-12-20T04:32:29.541Z,33.20
2018-12-20T04:33:30.814Z,33.05
2018-12-20T04:34:32.164Z,33.04
2018-12-20T04:35:33.459Z,32.86
2018-12-20T04:36:34.889Z,33.11
2018-12-20T04:37:36.084Z,32.88
2018-12-20T04:38:37.593Z,32.71
2018-12-20T04:39:38.885Z,32.72
2018-12-20T04:40:40.086Z,32.94
2018-12-20T04:41:41.240Z,32.84
2018-12-20T04:42:42.552Z,32.79
2018-12-20T04:43:43.777Z,32.92
2018-12-20T04:44:45.162Z,33.07
2018-12-20T04:45:46.763Z,32.88
2018-12-20T04:46:48.591Z,33.00
2018-12-20T04:47:50.172Z,32.78
2018-12-20T04:48:51.379Z,33.23
2018-12-20T04:49:52.687Z,32.89
2018-12-20T04:50:54.005Z,33.34
2018-12-20T04:51:55.488Z,33.08
2018-12-20T04:52:56.808Z,32.95
2018-12-20T04:53:58.101Z,33.25
2018-12-20T04:54:59.401Z,32.98
2018-12-20T04:56:00.543Z,32.97
2018-12-20T04:57:01.761Z,32.71
2018-12-20T04:58:03.110Z,33.38
2018-12-20T04:59:04.400Z,33.37
2018-12-20T05:00:07.747Z,32.94
2018-12-20T05:01:08.917Z,33.41
2018-12-20T05:02:10.295Z,33.21
2018-12-20T05:03:11.539Z,33.29
2018-12-20T05:04:12.839Z,33.37
2018-12-20T05:05:14.044Z,33.01
2018-12-20T05:06:15.236Z,33.21
2018-12-20T05:07:16.379Z,33.06
2018-12-20T05:08:17.539Z,32.88
2018-12-20T05:09:18.764Z,33.24
2018-12-20T05:10:20.296Z,33.45
2018-12-20T05:11:21.689Z,33.15
2018-12-20T05:12:23.107Z,33.44
2018-12-20T05:13:24.554Z,33.02
2018-12-20T05:14:26.464Z,33.52
2018-12-20T05:15:28.034Z,33.05
2018-12-20T05:16:29.354Z,33.41
2018-12-20T05:17:30.758Z,33.11
2018-12-20T05:18:32.030Z,33.13
2018-12-20T05:19:33.352Z,33.36
2018-12-20T05:20:34.564Z,33.52
2018-12-20T05:21:36.446Z,33.60
2018-12-20T05:22:38.002Z,33.02
2018-12-20T05:23:39.537Z,33.54
2018-12-20T05:24:40.814Z,33.26
2018-12-20T05:25:41.959Z,33.34
2018-12-20T05:26:43.327Z,33.12
2018-12-20T05:27:44.733Z,33.43
2018-12-20T05:28:45.993Z,33.17
2018-12-20T05:29:47.198Z,33.59
2018-12-20T05:30:48.414Z,33.09
2018-12-20T05:31:49.621Z,33.16
2018-12-20T05:32:50.790Z,32.97
2018-12-20T05:33:52.162Z,33.32
2018-12-20T05:34:53.598Z,33.48
2018-12-20T05:35:55.011Z,32.91
2018-12-20T05:36:56.480Z,33.20
2018-12-20T05:37:57.721Z,33.18
2018-12-20T05:38:59.035Z,33.06
2018-12-20T05:40:00.350Z,32.90
2018-12-20T05:41:01.741Z,32.94
2018-12-20T05:42:03.099Z,32.99
2018-12-20T05:43:04.316Z,32.81
2018-12-20T05:44:05.709Z,33.13
2018-12-20T05:45:07.169Z,33.17
2018-12-20T05:46:08.410Z,32.69
2018-12-20T05:47:09.786Z,33.06
2018-12-20T05:48:11.067Z,33.10
2018-12-20T05:49:12.280Z,32.91
2018-12-20T05:50:13.481Z,32.81
2018-12-20T05:51:14.652Z,33.00
2018-12-20T05:52:15.825Z,32.63
2018-12-20T05:53:16.978Z,32.66
2018-12-20T05:54:18.184Z,32.63
2018-12-20T05:55:26.439Z,32.72
2018-12-20T05:56:27.668Z,33.04
2018-12-20T05:57:28.919Z,33.00
2018-12-20T05:58:30.134Z,32.87
2018-12-20T05:59:31.411Z,32.71
2018-12-20T06:00:32.640Z,32.94
2018-12-20T06:01:34.004Z,32.61
2018-12-20T06:02:35.266Z,32.83
2018-12-20T06:03:36.457Z,32.99
2018-12-20T06:04:37.712Z,32.79
2018-12-20T06:05:38.894Z,32.91
2018-12-20T06:06:40.058Z,32.98
2018-12-20T06:07:41.397Z,33.10
2018-12-20T06:08:42.643Z,33.11
2018-12-20T06:09:44.199Z,32.89
2018-12-20T06:10:45.451Z,32.72
2018-12-20T06:11:46.841Z,33.08
2018-12-20T06:12:48.037Z,32.69
2018-12-20T06:13:49.387Z,32.93
2018-12-20T06:14:50.595Z,32.48
2018-12-20T06:15:52.033Z,32.64
2018-12-20T06:16:53.283Z,32.52
2018-12-20T06:17:54.602Z,32.85
2018-12-20T06:18:55.974Z,32.92
2018-12-20T06:19:57.161Z,32.55
2018-12-20T06:20:58.318Z,32.86
2018-12-20T06:21:59.460Z,32.97
2018-12-20T06:23:00.613Z,32.73
2018-12-20T06:24:01.784Z,33.00
2018-12-20T06:25:03.502Z,32.54
2018-12-20T06:26:11.681Z,32.59
2018-12-20T06:27:12.837Z,32.87
2018-12-20T06:28:14.031Z,32.92
2018-12-20T06:29:15.167Z,32.95
2018-12-20T06:30:16.321Z,32.73
2018-12-20T06:31:17.485Z,32.75
2018-12-20T06:32:18.621Z,32.64
2018-12-20T06:33:19.762Z,32.70
2018-12-20T06:34:20.938Z,33.05
2018-12-20T06:35:22.082Z,33.19
2018-12-20T06:36:23.213Z,32.59
2018-12-20T06:37:24.397Z,32.67
2018-12-20T06:38:25.586Z,32.71
2018-12-20T06:39:26.722Z,32.86
2018-12-20T06:40:27.897Z,33.27
2018-12-20T06:41:29.038Z,33.07
2018-12-20T06:42:30.174Z,33.11
2018-12-20T06:43:31.303Z,33.14
2018-12-20T06:44:32.469Z,32.68
2018-12-20T06:45:33.613Z,32.71
2018-12-20T06:46:37.745Z,33.27
2018-12-20T06:47:38.910Z,33.06
2018-12-20T06:48:40.958Z,32.89
2018-12-20T06:49:42.098Z,33.12
2018-12-20T06:50:43.283Z,33.16
2018-12-20T06:51:44.477Z,33.33
2018-12-20T06:52:45.727Z,33.13
2018-12-20T06:53:46.885Z,33.05
2018-12-20T06:54:48.025Z,32.87
2018-12-20T06:55:49.182Z,33.10
2018-12-20T06:56:50.303Z,32.74
2018-12-20T06:57:51.990Z,32.78
2018-12-20T06:58:53.137Z,32.81
2018-12-20T06:59:54.290Z,33.02
2018-12-20T07:00:55.435Z,33.17
2018-12-20T07:02:03.888Z,32.90
2018-12-20T07:03:05.025Z,33.17
2018-12-20T07:04:06.161Z,33.19
2018-12-20T07:05:07.314Z,33.00
2018-12-20T07:06:08.440Z,33.34
2018-12-20T07:07:09.557Z,32.81
2018-12-20T07:08:10.690Z,33.23
2018-12-20T07:09:11.823Z,33.27
2018-12-20T07:10:12.951Z,33.15
2018-12-20T07:11:14.097Z,33.29
2018-12-20T07:12:15.212Z,32.80
2018-12-20T07:13:16.361Z,33.14
2018-12-20T07:14:17.476Z,33.25
2018-12-20T07:15:18.605Z,33.28
2018-12-20T07:16:19.749Z,33.31
2018-12-20T07:17:20.946Z,32.73
2018-12-20T07:18:22.113Z,32.86
2018-12-20T07:19:30.133Z,32.79
2018-12-20T07:20:31.260Z,32.93
2018-12-20T07:21:32.393Z,33.30
2018-12-20T07:22:33.549Z,32.88
2018-12-20T07:23:34.674Z,33.25
2018-12-20T07:24:35.793Z,33.05
2018-12-20T07:25:36.937Z,32.99
2018-12-20T07:26:38.168Z,33.08
2018-12-20T07:27:39.340Z,32.96
2018-12-20T07:28:40.482Z,32.84
2018-12-20T07:29:41.606Z,33.29
2018-12-20T07:30:42.717Z,33.21
2018-12-20T07:31:50.825Z,33.18
2018-12-20T07:32:51.953Z,32.85
2018-12-20T07:33:53.101Z,33.04
2018-12-20T07:34:54.237Z,33.16
2018-12-20T07:35:55.366Z,33.27
2018-12-20T07:36:56.489Z,33.35
2018-12-20T07:37:57.656Z,33.27
2018-12-20T07:38:58.849Z,33.43
2018-12-20T07:40:00.925Z,33.31
2018-12-20T07:41:02.061Z,33.36
2018-12-20T07:42:03.217Z,33.39
2018-12-20T07:43:04.360Z,33.08
2018-12-20T07:44:05.509Z,33.07
2018-12-20T07:45:07.315Z,33.58
2018-12-20T07:46:08.442Z,33.00
2018-12-20T07:47:09.558Z,33.02
2018-12-20T07:48:10.748Z,32.92
2018-12-20T07:49:11.893Z,33.12
2018-12-20T07:50:13.015Z,33.53
2018-12-20T07:51:14.148Z,33.42
2018-12-20T07:52:15.293Z,33.17
2018-12-20T07:53:16.430Z,33.05
2018-12-20T07:54:17.564Z,33.44
2018-12-20T07:55:18.707Z,33.40
2018-12-20T07:56:19.873Z,33.01
2018-12-20T07:57:21.017Z,33.21
2018-12-20T07:58:22.142Z,33.49
2018-12-20T07:59:23.569Z,33.68
2018-12-20T08:00:26.997Z,33.16
2018-12-20T08:01:28.121Z,33.63
2018-12-20T08:02:29.262Z,33.12
2018-12-20T08:03:30.404Z,33.63
2018-12-20T08:04:31.529Z,33.23
2018-12-20T08:05:32.654Z,33.34
2018-12-20T08:06:33.785Z,33.52
2018-12-20T08:07:35.049Z,33.65
2018-12-20T08:08:36.176Z,33.46
2018-12-20T08:09:37.341Z,33.49
2018-12-20T08:10:38.517Z,33.29
2018-12-20T08:11:39.646Z,33.22
2018-12-20T08:12:40.781Z,33.11
2018-12-20T08:13:41.906Z,33.53
2018-12-20T08:14:49.960Z,33.44
2018-12-20T08:15:51.106Z,33.04
2018-12-20T08:16:59.193Z,33.47
2018-12-20T08:18:00.322Z,32.99
2018-12-20T08:19:01.446Z,33.52
2018-12-20T08:20:03.733Z,33.54
2018-12-20T08:21:04.897Z,33.30
2018-12-20T08:22:06.069Z,32.97
2018-12-20T08:23:07.251Z,33.08
2018-12-20T08:24:08.408Z,33.48
2018-12-20T08:25:09.557Z,33.54
2018-12-20T08:26:10.735Z,33.48
2018-12-20T08:27:11.893Z,33.62
2018-12-20T08:28:13.063Z,33.23
2018-12-20T08:29:14.215Z,33.04
2018-12-20T08:30:15.321Z,33.06
2018-12-20T08:31:16.462Z,33.30
2018-12-20T08:32:17.594Z,33.07
2018-12-20T08:33:18.807Z,33.24
2018-12-20T08:34:19.957Z,33.66
2018-12-20T08:35:21.088Z,33.57
2018-12-20T08:36:22.218Z,33.56
2018-12-20T08:37:23.381Z,33.20
2018-12-20T08:38:24.525Z,33.45
2018-12-20T08:39:25.677Z,33.67
2018-12-20T08:40:26.829Z,33.36
2018-12-20T08:41:28.094Z,33.02
2018-12-20T08:42:36.082Z,33.10
2018-12-20T08:43:37.210Z,33.57
2018-12-20T08:44:38.377Z,33.30
2018-12-20T08:45:39.543Z,33.66
2018-12-20T08:46:42.721Z,33.73
2018-12-20T08:47:43.870Z,33.34
2018-12-20T08:48:45.018Z,33.20
2018-12-20T08:49:46.153Z,33.56
2018-12-20T08:50:47.483Z,33.76
2018-12-20T08:51:49.199Z,33.26
2018-12-20T08:52:50.670Z,33.24
2018-12-20T08:53:51.798Z,33.24
2018-12-20T08:54:52.926Z,33.42
2018-12-20T08:55:54.077Z,33.62
2018-12-20T08:56:55.282Z,33.23
2018-12-20T08:57:56.421Z,33.26
2018-12-20T08:58:57.577Z,33.57
2018-12-20T08:59:58.725Z,33.16
2018-12-20T09:00:59.857Z,33.19
2018-12-20T09:02:00.977Z,33.39
2018-12-20T09:03:02.110Z,33.28
2018-12-20T09:04:03.254Z,33.46
2018-12-20T09:05:04.550Z,33.58
2018-12-20T09:06:05.684Z,33.38
2018-12-20T09:07:06.822Z,34.03
2018-12-20T09:08:07.975Z,34.03
2018-12-20T09:09:09.109Z,34.09
2018-12-20T09:10:10.273Z,34.11
2018-12-20T09:11:11.387Z,33.69
2018-12-20T09:12:12.489Z,34.10
2018-12-20T09:13:13.602Z,34.17
2018-12-20T09:14:16.241Z,33.90
2018-12-20T09:15:17.577Z,34.00
2018-12-20T09:16:18.683Z,34.61
2018-12-20T09:17:19.822Z,34.39
2018-12-20T09:18:20.974Z,34.78
2018-12-20T09:19:22.093Z,34.21
2018-12-20T09:20:23.205Z,34.70
2018-12-20T09:21:24.468Z,34.72
2018-12-20T09:22:32.664Z,34.59
2018-12-20T09:23:33.804Z,34.35
2018-12-20T09:24:35.036Z,34.07
2018-12-20T09:25:36.141Z,34.45
2018-12-20T09:26:37.316Z,34.14
2018-12-20T09:27:38.455Z,34.12
2018-12-20T09:28:39.586Z,34.42
2018-12-20T09:29:41.101Z,34.55
2018-12-20T09:30:42.240Z,34.06
2018-12-20T09:31:43.377Z,34.26
2018-12-20T09:32:44.522Z,33.91
2018-12-20T09:33:45.640Z,33.84
2018-12-20T09:34:46.780Z,33.96
2018-12-20T09:35:47.908Z,34.20
2018-12-20T09:36:49.021Z,33.91
2018-12-20T09:37:50.169Z,34.10
2018-12-20T09:38:58.305Z,33.81
2018-12-20T09:39:59.767Z,33.60
2018-12-20T09:41:00.939Z,34.06
2018-12-20T09:42:02.082Z,33.61
2018-12-20T09:43:03.261Z,33.96
2018-12-20T09:44:04.385Z,33.63
2018-12-20T09:45:05.658Z,33.67
2018-12-20T09:46:06.788Z,33.82
2018-12-20T09:47:13.826Z,33.90
2018-12-20T09:48:14.946Z,33.70
2018-12-20T09:49:16.066Z,33.77
2018-12-20T09:50:17.186Z,33.75
2018-12-20T09:52:26.358Z,33.50
2018-12-20T09:53:27.517Z,33.82
2018-12-20T09:54:28.642Z,33.93
2018-12-20T09:55:29.773Z,33.38
2018-12-20T09:56:30.897Z,33.45
2018-12-20T09:57:33.335Z,33.42
2018-12-20T09:58:34.578Z,33.49
2018-12-20T09:59:35.703Z,33.88
2018-12-20T10:00:36.878Z,33.50
2018-12-20T10:01:38.090Z,33.62
2018-12-20T10:02:39.249Z,33.38
2018-12-20T10:03:40.397Z,33.64
2018-12-20T10:04:41.651Z,33.78
2018-12-20T10:05:42.804Z,33.60
2018-12-20T10:06:43.990Z,33.34
2018-12-20T10:07:45.165Z,33.71
2018-12-20T10:08:46.325Z,33.71
2018-12-20T10:09:47.487Z,33.31
2018-12-20T10:10:49.457Z,33.67
2018-12-20T10:11:50.730Z,33.29
2018-12-20T10:12:51.902Z,33.28
2018-12-20T10:13:53.143Z,33.60
2018-12-20T10:14:54.326Z,33.48
2018-12-20T10:15:55.499Z,33.18
2018-12-20T10:16:56.687Z,33.42
2018-12-20T10:17:57.945Z,33.67
2018-12-20T10:18:59.166Z,33.57
2018-12-20T10:20:00.334Z,33.46
2018-12-20T10:21:01.506Z,32.83
2018-12-20T10:22:02.696Z,33.40
2018-12-20T10:23:03.971Z,33.12
2018-12-20T10:24:05.170Z,33.42
2018-12-20T10:25:06.405Z,33.00
2018-12-20T10:26:07.610Z,32.90
2018-12-20T10:27:08.834Z,33.47
2018-12-20T10:28:10.040Z,33.28
2018-12-20T10:29:11.205Z,33.46
2018-12-20T10:30:12.407Z,33.17
2018-12-20T10:31:13.625Z,33.18
2018-12-20T10:32:15.730Z,33.10
2018-12-20T10:33:17.800Z,33.45
2018-12-20T10:34:19.200Z,33.09
2018-12-20T10:35:20.419Z,32.97
2018-12-20T10:36:21.616Z,33.58
2018-12-20T10:37:22.822Z,33.18
2018-12-20T10:38:23.997Z,33.26
2018-12-20T10:39:25.142Z,33.23
2018-12-20T10:40:26.237Z,33.23
2018-12-20T10:41:27.418Z,33.69
2018-12-20T10:42:28.610Z,33.49
2018-12-20T10:43:29.778Z,33.39
2018-12-20T10:44:30.924Z,33.54
2018-12-20T10:45:32.208Z,33.29
2018-12-20T10:46:33.399Z,33.60
2018-12-20T10:47:34.538Z,33.55
2018-12-20T10:48:35.661Z,33.16
2018-12-20T10:49:36.835Z,33.64
2018-12-20T10:50:38.102Z,33.23
2018-12-20T10:51:39.277Z,33.25
2018-12-20T10:52:40.403Z,33.48
2018-12-20T10:53:41.534Z,33.72
2018-12-20T10:54:42.665Z,33.63
2018-12-20T10:55:43.880Z,33.26
2018-12-20T10:56:45.013Z,33.48
2018-12-20T10:57:46.166Z,33.24
2018-12-20T10:58:47.313Z,33.18
2018-12-20T10:59:48.531Z,33.41
2018-12-20T11:00:55.657Z,33.44
2018-12-20T11:02:02.795Z,33.59
2018-12-20T11:03:10.186Z,33.13
2018-12-20T11:04:19.181Z,33.68
2018-12-20T11:05:21.825Z,33.38
2018-12-20T11:08:00.921Z,33.56
2018-12-20T11:09:08.101Z,33.29
2018-12-20T11:10:15.431Z,33.22
2018-12-20T11:11:18.622Z,33.73
2018-12-20T11:12:26.189Z,33.44
2018-12-20T11:13:27.668Z,33.75
2018-12-20T11:14:28.845Z,33.31
2018-12-20T11:15:29.993Z,33.23
2018-12-20T11:16:31.187Z,33.42
2018-12-20T11:17:37.360Z,33.20
2018-12-20T11:18:35.781Z,33.54
2018-12-20T11:19:36.949Z,33.42
2018-12-20T11:20:38.241Z,33.76
2018-12-20T11:21:39.361Z,33.23
2018-12-20T11:22:40.622Z,33.42
2018-12-20T11:23:41.749Z,33.52
2018-12-20T11:24:42.890Z,33.54
2018-12-20T11:25:44.117Z,33.49
2018-12-20T11:26:45.477Z,33.98
2018-12-20T11:27:46.622Z,33.61
2018-12-20T11:28:47.737Z,33.42
2018-12-20T11:29:48.869Z,33.87
2018-12-20T11:30:49.981Z,33.67
2018-12-20T11:31:51.089Z,33.39
2018-12-20T11:32:52.205Z,33.87
2018-12-20T11:33:53.337Z,33.61
2018-12-20T11:34:54.483Z,33.57
2018-12-20T11:35:55.637Z,35.44
2018-12-20T11:36:56.770Z,36.48
2018-12-20T11:37:57.885Z,36.65
2018-12-20T11:38:58.993Z,36.61
2018-12-20T11:40:00.150Z,36.77
2018-12-20T11:41:01.292Z,36.22
2018-12-20T11:42:02.613Z,36.36
2018-12-20T11:43:03.769Z,35.83
2018-12-20T11:44:04.958Z,35.59
2018-12-20T11:45:06.412Z,35.89
2018-12-20T11:46:07.591Z,35.41
2018-12-20T11:47:10.793Z,35.01
2018-12-20T11:48:11.937Z,34.78
2018-12-20T11:49:13.102Z,34.34
2018-12-20T11:50:14.265Z,34.45
2018-12-20T11:51:15.438Z,34.11
2018-12-20T11:52:16.621Z,34.46
2018-12-20T11:53:17.770Z,33.82
2018-12-20T11:54:18.938Z,33.52
2018-12-20T11:55:20.101Z,33.46
2018-12-20T11:56:21.357Z,33.98
2018-12-20T11:57:22.506Z,33.60
2018-12-20T11:58:23.675Z,33.38
2018-12-20T11:59:24.913Z,33.40
2018-12-20T12:00:26.205Z,33.45
2018-12-20T12:01:27.365Z,33.28
2018-12-20T12:02:28.531Z,32.77
2018-12-20T12:03:29.665Z,32.97
2018-12-20T12:04:30.819Z,32.55
2018-12-20T12:05:32.189Z,32.98
2018-12-20T12:06:33.561Z,32.36
2018-12-20T12:07:34.800Z,32.41
2018-12-20T12:08:35.982Z,32.45
2018-12-20T12:09:37.214Z,32.66
2018-12-20T12:10:38.435Z,32.56
2018-12-20T12:11:39.597Z,32.23
2018-12-20T12:12:40.761Z,32.67
2018-12-20T12:13:41.913Z,31.96
2018-12-20T12:14:43.189Z,31.88
2018-12-20T12:15:44.362Z,31.95
2018-12-20T12:16:45.515Z,31.87
2018-12-20T12:17:54.054Z,31.69
2018-12-20T12:18:49.856Z,31.72
2018-12-20T12:19:51.008Z,31.68
2018-12-20T12:20:52.289Z,31.76
2018-12-20T12:21:53.452Z,31.88
2018-12-20T12:22:54.666Z,32.00
2018-12-20T12:23:55.817Z,32.02
2018-12-20T12:24:57.033Z,32.00
2018-12-20T12:25:58.169Z,31.85
2018-12-20T12:26:59.362Z,31.69
2018-12-20T12:28:00.562Z,31.37
2018-12-20T12:29:01.711Z,31.58
2018-12-20T12:30:04.309Z,31.34
2018-12-20T12:31:05.478Z,31.46
2018-12-20T12:32:06.670Z,31.55
2018-12-20T12:33:07.845Z,31.23
2018-12-20T12:34:09.002Z,31.86
2018-12-20T12:35:10.177Z,31.75
2018-12-20T12:36:11.371Z,31.67
2018-12-20T12:37:12.518Z,31.74
2018-12-20T12:38:13.692Z,31.55
2018-12-20T12:39:14.982Z,31.49
2018-12-20T12:40:16.134Z,31.27
2018-12-20T12:41:17.269Z,31.62
2018-12-20T12:42:18.425Z,31.37
2018-12-20T12:43:19.594Z,31.35
2018-12-20T12:44:20.750Z,31.37
2018-12-20T12:45:21.914Z,31.41
2018-12-20T12:46:23.073Z,31.11
2018-12-20T12:47:30.392Z,31.38
2018-12-20T12:48:31.565Z,31.39
2018-12-20T12:49:32.746Z,30.89
2018-12-20T12:50:33.921Z,30.94
2018-12-20T12:51:35.082Z,30.91
2018-12-20T12:52:36.279Z,30.90
2018-12-20T12:53:37.457Z,30.85
2018-12-20T12:54:38.593Z,30.87
2018-12-20T12:55:39.724Z,31.09
2018-12-20T12:56:40.925Z,31.01
2018-12-20T12:57:42.095Z,31.03
2018-12-20T12:58:43.364Z,30.75
2018-12-20T12:59:44.527Z,31.11
2018-12-20T13:00:45.669Z,31.20
2018-12-20T13:01:46.802Z,30.92
2018-12-20T13:02:47.969Z,31.02
2018-12-20T13:03:49.158Z,30.96
2018-12-20T13:04:50.322Z,31.23
2018-12-20T13:05:51.474Z,30.92
2018-12-20T13:06:52.677Z,31.02
2018-12-20T13:07:53.817Z,30.89
2018-12-20T13:08:54.963Z,30.92
2018-12-20T13:09:56.105Z,31.19
2018-12-20T13:10:58.472Z,31.23
2018-12-20T13:11:59.847Z,30.77
2018-12-20T13:13:00.997Z,30.92
2018-12-20T13:14:02.121Z,31.12